Terminal Aerodrome Forecast
Issued by NWS Melbourne, FL

Home | Current Version | Previous Version | Text Only | Print | Product List | Glossary On
Versions: 1 2 3 4 5 6 7 8 9 10 11 12 13 14 15 16 17 18 19 20 21 22 23 24 25 26 27 28 29
000
FTUS42 KMLB 271734
TAFMCO
TAF
KMCO 271734Z 2718/2818 28005KT P6SM SCT035
     FM272000 25006KT P6SM VCTS SCT035CB BKN060
     FM280000 22004KT P6SM SCT040 SCT120 BKN250
     FM280400 23003KT P6SM SCT250
     FM281400 23005KT P6SM SCT025=

USA.gov is the U.S. government's official web portal to all federal, state and local government web resources and services.